createdAt,value
2022-12-17T00:02:16.175Z,16.63
2022-12-17T00:05:39.952Z,8.93
2022-12-17T00:09:03.601Z,5.93
2022-12-17T00:12:32.890Z,12.33
2022-12-17T00:15:57.656Z,11.23
2022-12-17T00:19:18.096Z,16.20
2022-12-17T00:22:42.369Z,20.20
2022-12-17T00:26:10.163Z,18.10
2022-12-17T00:29:34.335Z,15.57
2022-12-17T00:32:59.251Z,14.83
2022-12-17T00:36:23.537Z,14.10
2022-12-17T00:39:47.613Z,15.07
2022-12-17T00:43:18.546Z,19.07
2022-12-17T00:46:42.576Z,12.67
2022-12-17T00:50:07.568Z,13.47
2022-12-17T00:53:31.386Z,20.03
2022-12-17T00:56:56.337Z,16.37
2022-12-17T01:00:20.533Z,12.33
2022-12-17T01:03:44.368Z,16.30
2022-12-17T01:07:09.549Z,22.53
2022-12-17T01:10:33.344Z,25.53
2022-12-17T01:13:57.172Z,19.27
2022-12-17T01:17:32.573Z,19.60
2022-12-17T01:20:56.145Z,16.50
2022-12-17T01:24:21.310Z,19.63
2022-12-17T01:27:44.925Z,23.27
2022-12-17T01:31:08.886Z,21.43
2022-12-17T01:34:32.937Z,21.17
2022-12-17T01:37:57.041Z,17.30
2022-12-17T01:41:23.575Z,21.07
2022-12-17T01:45:14.787Z,10.93
2022-12-17T01:48:41.140Z,13.27
2022-12-17T01:52:04.874Z,13.67
2022-12-17T01:55:29.069Z,19.20
2022-12-17T01:58:55.093Z,20.10
2022-12-17T02:02:18.928Z,20.97
2022-12-17T02:05:51.770Z,21.77
2022-12-17T02:09:24.461Z,15.37
2022-12-17T02:12:56.441Z,9.47
2022-12-17T02:16:27.870Z,9.47
2022-12-17T02:20:03.239Z,13.93
2022-12-17T02:23:39.487Z,18.40
2022-12-17T02:27:06.893Z,13.93
2022-12-17T02:30:30.933Z,11.93
2022-12-17T02:33:55.054Z,11.37
2022-12-17T02:37:18.983Z,11.97
2022-12-17T02:40:44.380Z,8.93
2022-12-17T02:44:11.612Z,11.57
2022-12-17T02:47:37.649Z,11.33
2022-12-17T02:51:09.789Z,10.57
2022-12-17T02:54:33.352Z,10.80
2022-12-17T02:57:57.379Z,9.10
2022-12-17T03:01:23.234Z,15.13
2022-12-17T03:04:47.354Z,15.47
2022-12-17T03:08:11.499Z,11.30
2022-12-17T03:11:35.527Z,12.00
2022-12-17T03:14:59.503Z,10.93
2022-12-17T03:18:24.763Z,10.30
2022-12-17T03:21:48.705Z,16.30
2022-12-17T03:25:27.396Z,89.77
2022-12-17T03:28:51.090Z,41.73
2022-12-17T03:32:25.891Z,16.67
2022-12-17T03:35:51.418Z,17.10
2022-12-17T03:39:15.226Z,30.97
2022-12-17T03:42:39.350Z,25.83
2022-12-17T03:46:11.094Z,28.20
2022-12-17T03:49:35.222Z,24.27
2022-12-17T03:53:00.233Z,15.33
2022-12-17T03:56:23.957Z,14.37
2022-12-17T03:59:48.003Z,17.10
2022-12-17T04:03:12.315Z,13.00
2022-12-17T04:06:36.409Z,16.27
2022-12-17T04:10:01.085Z,22.63
2022-12-17T04:13:25.172Z,12.53
2022-12-17T04:16:49.443Z,11.63
2022-12-17T04:20:12.685Z,10.80
2022-12-17T04:23:36.788Z,16.83
2022-12-17T04:27:01.855Z,13.43
2022-12-17T04:30:26.946Z,13.30
2022-12-17T04:33:50.885Z,5.27
2022-12-17T04:37:14.636Z,5.37
2022-12-17T04:40:38.440Z,4.43
2022-12-17T04:44:03.799Z,9.53
2022-12-17T04:47:32.128Z,9.50
2022-12-17T04:50:55.863Z,4.00
2022-12-17T04:54:16.404Z,6.33
2022-12-17T04:57:41.953Z,7.87
2022-12-17T05:01:09.423Z,21.07
2022-12-17T05:04:33.492Z,9.20
2022-12-17T05:07:57.610Z,9.83
2022-12-17T05:11:22.642Z,9.37
2022-12-17T05:14:46.516Z,7.07
2022-12-17T05:18:11.785Z,5.90
2022-12-17T05:21:35.992Z,3.70
2022-12-17T05:24:59.968Z,4.07
2022-12-17T05:28:24.347Z,11.20
2022-12-17T05:31:47.985Z,10.40
2022-12-17T05:35:12.833Z,9.77
2022-12-17T05:38:36.870Z,5.87
2022-12-17T05:42:00.437Z,6.13
2022-12-17T05:45:24.820Z,4.10
2022-12-17T05:48:49.607Z,10.77
2022-12-17T05:52:26.581Z,7.47
2022-12-17T05:55:49.968Z,3.97
2022-12-17T05:59:13.744Z,4.70
2022-12-17T06:02:37.635Z,5.53
2022-12-17T06:06:01.933Z,4.70
2022-12-17T06:09:26.950Z,6.87
2022-12-17T06:12:51.307Z,5.83
2022-12-17T06:16:15.016Z,9.53
2022-12-17T06:19:39.179Z,20.50
2022-12-17T06:23:02.875Z,15.77
2022-12-17T06:26:27.509Z,24.07
2022-12-17T06:29:51.260Z,22.17
2022-12-17T06:33:22.624Z,14.80
2022-12-17T06:36:46.757Z,25.40
2022-12-17T06:40:10.776Z,14.13
2022-12-17T06:43:37.794Z,21.03
2022-12-17T06:47:01.883Z,11.50
2022-12-17T06:50:26.194Z,9.03
2022-12-17T06:53:58.092Z,13.53
2022-12-17T06:57:21.774Z,12.03
2022-12-17T07:00:46.983Z,10.77
2022-12-17T07:04:11.080Z,24.23
2022-12-17T07:07:34.996Z,19.27
2022-12-17T07:10:58.720Z,30.47
2022-12-17T07:14:22.452Z,30.23
2022-12-17T07:17:47.025Z,28.13
2022-12-17T07:21:12.440Z,22.23
2022-12-17T07:24:36.778Z,20.20
2022-12-17T07:28:00.415Z,19.27
2022-12-17T07:31:24.148Z,26.50
2022-12-17T07:34:49.911Z,26.23
2022-12-17T07:38:20.451Z,34.10
2022-12-17T07:41:44.865Z,28.97
2022-12-17T07:45:08.629Z,22.70
2022-12-17T07:48:32.828Z,29.50
2022-12-17T07:51:58.047Z,30.47
2022-12-17T07:55:22.311Z,37.07
2022-12-17T07:58:45.905Z,31.40
2022-12-17T08:02:10.129Z,47.37
2022-12-17T08:05:34.615Z,30.63
2022-12-17T08:08:59.825Z,19.60
2022-12-17T08:12:23.698Z,24.20
2022-12-17T08:16:02.090Z,33.87
2022-12-17T08:19:25.784Z,57.57
2022-12-17T08:22:49.260Z,74.77
2022-12-17T08:26:13.900Z,73.87
2022-12-17T08:29:37.972Z,69.13
2022-12-17T08:33:01.921Z,77.80
2022-12-17T08:36:25.518Z,106.50
2022-12-17T08:39:49.241Z,39.47
2022-12-17T08:43:16.565Z,34.70
2022-12-17T08:46:40.495Z,21.13
2022-12-17T08:50:04.550Z,22.13
2022-12-17T08:53:34.616Z,33.03
2022-12-17T08:56:59.223Z,35.27
2022-12-17T09:00:26.093Z,45.93
2022-12-17T09:03:55.361Z,43.00
2022-12-17T09:07:19.061Z,29.90
2022-12-17T09:10:42.881Z,26.87
2022-12-17T09:14:06.892Z,31.70
2022-12-17T09:17:31.740Z,28.80
2022-12-17T09:20:55.499Z,45.40
2022-12-17T09:24:19.730Z,35.80
2022-12-17T09:27:55.723Z,57.37
2022-12-17T09:31:19.933Z,41.43
2022-12-17T09:34:41.497Z,28.43
2022-12-17T09:38:10.909Z,17.17
2022-12-17T09:41:44.192Z,28.20
2022-12-17T09:45:11.905Z,27.10
2022-12-17T09:48:42.110Z,22.83
2022-12-17T09:52:07.664Z,21.60
2022-12-17T09:55:31.797Z,33.27
2022-12-17T09:58:57.271Z,32.10
2022-12-17T10:02:22.294Z,68.77
2022-12-17T10:05:49.874Z,42.60
2022-12-17T10:09:17.993Z,51.43
2022-12-17T10:12:41.886Z,49.13
2022-12-17T10:16:05.983Z,37.77
2022-12-17T10:19:34.332Z,30.57
2022-12-17T10:23:02.961Z,37.83
2022-12-17T10:26:24.257Z,38.33
2022-12-17T10:29:52.428Z,31.50
2022-12-17T10:33:16.664Z,59.20
2022-12-17T10:36:42.415Z,39.53
2022-12-17T10:40:14.358Z,25.20
2022-12-17T10:43:48.565Z,39.13
2022-12-17T10:47:16.064Z,38.80
2022-12-17T10:50:41.069Z,39.17
2022-12-17T10:54:08.572Z,36.93
2022-12-17T10:57:42.991Z,29.23
2022-12-17T11:01:08.399Z,21.73
2022-12-17T11:04:44.289Z,48.37
2022-12-17T11:08:08.678Z,24.47
2022-12-17T11:11:33.423Z,34.13
2022-12-17T11:15:07.020Z,26.93
2022-12-17T11:18:38.021Z,42.70
2022-12-17T11:22:04.052Z,30.73
2022-12-17T11:25:50.777Z,92.97
2022-12-17T11:29:14.575Z,58.23
2022-12-17T11:32:59.379Z,36.37
2022-12-17T11:36:38.796Z,40.67
2022-12-17T11:40:08.268Z,29.63
2022-12-17T11:43:40.186Z,28.83
2022-12-17T11:47:10.687Z,26.67
2022-12-17T11:50:42.943Z,15.80
2022-12-17T11:54:18.587Z,23.23
2022-12-17T11:57:47.447Z,14.60
2022-12-17T12:01:22.885Z,16.83
2022-12-17T12:05:04.221Z,22.90
2022-12-17T12:08:37.891Z,23.67
2022-12-17T12:12:13.027Z,50.37
2022-12-17T12:15:48.500Z,30.07
2022-12-17T12:19:24.626Z,27.43
2022-12-17T12:22:56.258Z,15.30
2022-12-17T12:26:32.273Z,12.47
2022-12-17T12:30:14.110Z,15.97
2022-12-17T12:33:50.764Z,8.43
2022-12-17T12:37:18.037Z,22.93
2022-12-17T12:40:53.153Z,14.57
2022-12-17T12:44:19.553Z,30.37
2022-12-17T12:47:55.393Z,14.10
2022-12-17T12:51:33.705Z,14.50
2022-12-17T12:55:10.880Z,20.87
2022-12-17T12:58:45.356Z,25.63
2022-12-17T13:02:24.266Z,25.73
2022-12-17T13:05:39.117Z,17.47
2022-12-17T13:08:45.285Z,26.03
2022-12-17T13:11:55.768Z,24.43
2022-12-17T13:15:19.617Z,37.53
2022-12-17T13:18:31.200Z,49.17
2022-12-17T13:21:39.315Z,61.17
2022-12-17T13:24:47.758Z,52.00
2022-12-17T13:27:54.304Z,40.70
2022-12-17T13:31:07.311Z,20.03
2022-12-17T13:34:20.454Z,53.17
2022-12-17T13:37:41.395Z,39.03
2022-12-17T13:40:57.972Z,50.53
2022-12-17T13:44:18.452Z,62.47
2022-12-17T13:47:26.392Z,38.97
2022-12-17T13:50:34.661Z,26.33
2022-12-17T13:53:53.997Z,28.07
2022-12-17T13:57:09.719Z,26.37
2022-12-17T14:00:22.938Z,22.43
2022-12-17T14:03:56.504Z,23.87
2022-12-17T14:07:00.019Z,17.77
2022-12-17T14:10:17.065Z,22.67
2022-12-17T14:13:23.419Z,18.47
2022-12-17T14:16:30.402Z,34.00
2022-12-17T14:19:38.362Z,33.60
2022-12-17T14:22:51.295Z,42.53
2022-12-17T14:25:59.842Z,27.37
2022-12-17T14:29:14.306Z,32.47
2022-12-17T14:32:26.485Z,35.53
2022-12-17T14:35:37.422Z,19.17
2022-12-17T14:38:54.694Z,21.10
2022-12-17T14:42:29.761Z,28.93
2022-12-17T14:45:56.562Z,31.90
2022-12-17T14:49:06.093Z,32.70
2022-12-17T14:52:15.793Z,35.13
2022-12-17T14:55:37.417Z,23.47
2022-12-17T14:58:47.924Z,45.07
2022-12-17T15:01:56.354Z,96.40
2022-12-17T15:05:04.012Z,141.93
2022-12-17T15:08:12.876Z,112.40
2022-12-17T15:11:21.999Z,97.60
2022-12-17T15:14:29.907Z,121.63
2022-12-17T15:17:36.346Z,96.33
2022-12-17T15:20:43.073Z,88.63
2022-12-17T15:23:50.097Z,126.50
2022-12-17T15:26:56.483Z,101.57
2022-12-17T15:30:05.868Z,145.30
2022-12-17T15:33:12.692Z,101.07
2022-12-17T15:36:19.258Z,130.83
2022-12-17T15:39:25.278Z,121.67
2022-12-17T15:42:49.514Z,86.93
2022-12-17T15:46:02.503Z,112.73
2022-12-17T15:49:08.599Z,93.70
2022-12-17T15:52:15.610Z,78.40
2022-12-17T15:55:21.892Z,91.17
2022-12-17T15:58:28.308Z,57.37
2022-12-17T16:01:36.785Z,56.23
2022-12-17T16:04:43.116Z,79.50
2022-12-17T16:07:49.342Z,66.73
2022-12-17T16:10:55.318Z,70.83
2022-12-17T16:14:01.615Z,84.63
2022-12-17T16:17:09.468Z,80.50
2022-12-17T16:20:15.797Z,67.33
2022-12-17T16:23:22.685Z,70.23
2022-12-17T16:26:29.304Z,55.03
2022-12-17T16:29:35.693Z,29.90
2022-12-17T16:32:43.588Z,37.90
2022-12-17T16:35:52.281Z,38.63
2022-12-17T16:38:59.052Z,35.10
2022-12-17T16:42:05.584Z,62.17
2022-12-17T16:45:12.387Z,41.77
2022-12-17T16:48:20.546Z,78.80
2022-12-17T16:51:29.773Z,109.17
2022-12-17T16:54:36.207Z,103.83
2022-12-17T16:57:42.282Z,133.57
2022-12-17T17:00:55.349Z,121.90
2022-12-17T17:04:04.571Z,130.33
2022-12-17T17:07:11.066Z,178.73
2022-12-17T17:10:17.408Z,138.37
2022-12-17T17:13:23.897Z,148.80
2022-12-17T17:16:30.529Z,130.97
2022-12-17T17:19:38.722Z,107.23
2022-12-17T17:22:45.155Z,123.67
2022-12-17T17:25:57.585Z,114.60
2022-12-17T17:29:05.695Z,129.17
2022-12-17T17:32:13.266Z,169.60
2022-12-17T17:35:21.289Z,141.00
2022-12-17T17:38:27.589Z,158.83
2022-12-17T17:41:35.247Z,169.37
2022-12-17T17:44:41.578Z,153.97
2022-12-17T17:47:48.151Z,170.60
2022-12-17T17:51:03.629Z,200.10
2022-12-17T17:54:14.235Z,209.23
2022-12-17T17:57:21.317Z,213.10
2022-12-17T18:00:27.793Z,280.50
2022-12-17T18:03:34.481Z,177.63
2022-12-17T18:07:02.706Z,135.37
2022-12-17T18:10:11.212Z,115.60
2022-12-17T18:13:34.955Z,93.67
2022-12-17T18:16:43.255Z,70.20
2022-12-17T18:19:50.350Z,95.87
2022-12-17T18:22:57.831Z,130.07
2022-12-17T18:26:10.019Z,88.57
2022-12-17T18:29:17.999Z,75.00
2022-12-17T18:32:24.325Z,95.87
2022-12-17T18:35:30.469Z,126.73
2022-12-17T18:38:38.330Z,105.50
2022-12-17T18:42:03.156Z,81.47
2022-12-17T18:45:10.058Z,70.90
2022-12-17T18:48:16.008Z,76.80
2022-12-17T18:51:23.274Z,99.57
2022-12-17T18:54:33.020Z,125.93
2022-12-17T18:57:39.258Z,93.73
2022-12-17T19:00:45.419Z,84.93
2022-12-17T19:03:51.638Z,84.97
2022-12-17T19:06:57.621Z,72.77
2022-12-17T19:10:05.810Z,56.10
2022-12-17T19:13:12.269Z,49.67
2022-12-17T19:16:20.830Z,65.37
2022-12-17T19:19:27.961Z,132.63
2022-12-17T19:22:34.243Z,53.87
2022-12-17T19:25:42.110Z,63.07
2022-12-17T19:28:50.483Z,86.63
2022-12-17T19:31:57.028Z,116.30
2022-12-17T19:35:03.617Z,188.33
2022-12-17T19:38:09.969Z,168.67
2022-12-17T19:41:19.315Z,170.43
2022-12-17T19:44:27.002Z,166.13
2022-12-17T19:47:33.382Z,174.70
2022-12-17T19:50:39.900Z,166.10
2022-12-17T19:53:47.314Z,111.33
2022-12-17T19:56:55.639Z,138.63
2022-12-17T20:00:01.998Z,114.83
2022-12-17T20:03:08.607Z,111.03
2022-12-17T20:06:16.342Z,113.70
2022-12-17T20:09:23.264Z,106.87
2022-12-17T20:12:30.909Z,66.77
2022-12-17T20:15:37.090Z,35.70
2022-12-17T20:18:43.801Z,39.63
2022-12-17T20:21:50.446Z,45.13
2022-12-17T20:24:57.058Z,60.70
2022-12-17T20:28:04.823Z,65.47
2022-12-17T20:31:11.403Z,76.30
2022-12-17T20:34:19.098Z,64.83
2022-12-17T20:37:25.568Z,74.27
2022-12-17T20:40:31.610Z,66.50
2022-12-17T20:43:40.069Z,70.60
2022-12-17T20:46:46.245Z,60.03
2022-12-17T20:49:52.150Z,74.07
2022-12-17T20:52:58.275Z,73.73
2022-12-17T20:56:07.634Z,103.63
2022-12-17T20:59:17.809Z,99.10
2022-12-17T21:02:24.506Z,83.13
2022-12-17T21:05:31.154Z,93.40
2022-12-17T21:08:38.176Z,116.10
2022-12-17T21:11:44.384Z,111.17
2022-12-17T21:14:52.016Z,123.90
2022-12-17T21:17:58.154Z,132.70
2022-12-17T21:21:07.445Z,103.57
2022-12-17T21:24:13.517Z,119.07
2022-12-17T21:27:20.679Z,113.57
2022-12-17T21:30:28.450Z,106.73
2022-12-17T21:33:34.860Z,103.37
2022-12-17T21:36:45.291Z,101.40
2022-12-17T21:39:56.515Z,84.63
2022-12-17T21:43:06.225Z,92.27
2022-12-17T21:46:15.343Z,83.37
2022-12-17T21:49:21.826Z,56.47
2022-12-17T21:52:28.357Z,33.33
2022-12-17T21:55:34.881Z,26.10
2022-12-17T21:58:41.964Z,16.50
2022-12-17T22:01:51.106Z,15.70
2022-12-17T22:04:57.821Z,14.70
2022-12-17T22:08:04.780Z,12.63
2022-12-17T22:11:12.202Z,13.80
2022-12-17T22:14:21.192Z,12.57
2022-12-17T22:17:28.912Z,9.90
2022-12-17T22:20:35.148Z,11.63
2022-12-17T22:23:43.341Z,11.07
2022-12-17T22:26:50.095Z,11.47
2022-12-17T22:30:14.104Z,14.17
2022-12-17T22:34:06.604Z,8.67
2022-12-17T22:39:25.147Z,44.47
2022-12-17T22:44:30.302Z,18.07
2022-12-17T22:44:51.401Z,22.17
2022-12-17T22:47:07.331Z,19.83
2022-12-17T22:50:15.286Z,10.53
2022-12-17T22:53:22.785Z,21.70
2022-12-17T22:56:51.985Z,19.53
2022-12-17T22:59:56.059Z,14.13
2022-12-17T23:03:03.125Z,22.20
2022-12-17T23:06:13.225Z,18.23
2022-12-17T23:09:21.213Z,25.00
2022-12-17T23:12:44.980Z,33.53
2022-12-17T23:15:53.192Z,38.53
2022-12-17T23:19:01.599Z,46.67
2022-12-17T23:22:09.453Z,34.40
2022-12-17T23:25:16.817Z,39.37
2022-12-17T23:28:23.157Z,29.50
2022-12-17T23:31:33.297Z,18.20
2022-12-17T23:34:39.703Z,35.63
2022-12-17T23:37:47.241Z,33.80
2022-12-17T23:40:53.367Z,37.53
2022-12-17T23:44:00.304Z,32.67
2022-12-17T23:47:07.022Z,55.03
2022-12-17T23:50:13.476Z,38.17
2022-12-17T23:53:21.427Z,34.17
2022-12-17T23:56:29.179Z,29.03
2022-12-17T23:59:35.480Z,28.23
